createdAt,value
2018-08-06T00:00:28.721Z,44.80
2018-08-06T00:02:57.154Z,45.00
2018-08-06T00:05:25.512Z,45.40
2018-08-06T00:10:23.994Z,45.30
2018-08-06T00:12:52.390Z,45.40
2018-08-06T00:15:20.916Z,45.50
2018-08-06T00:17:49.492Z,45.70
2018-08-06T00:20:17.929Z,46.00
2018-08-06T00:22:46.299Z,46.20
2018-08-06T00:25:15.772Z,46.20
2018-08-06T00:27:44.577Z,46.80
2018-08-06T00:30:16.471Z,46.40
2018-08-06T00:32:45.736Z,46.30
2018-08-06T00:35:14.554Z,46.60
2018-08-06T00:37:43.838Z,46.70
2018-08-06T00:40:15.185Z,46.50
2018-08-06T00:45:14.969Z,47.30
2018-08-06T00:47:43.897Z,47.20
2018-08-06T00:50:12.700Z,47.50
2018-08-06T00:52:41.034Z,47.80
2018-08-06T00:55:18.968Z,47.80
2018-08-06T00:57:47.401Z,47.50
2018-08-06T01:00:17.041Z,47.70
2018-08-06T01:02:45.451Z,47.60
2018-08-06T01:05:14.642Z,47.60
2018-08-06T01:07:43.573Z,48.00
2018-08-06T01:10:13.923Z,48.40
2018-08-06T01:12:42.374Z,48.50
2018-08-06T01:15:15.874Z,48.50
2018-08-06T01:17:44.534Z,48.30
2018-08-06T01:20:13.510Z,48.90
2018-08-06T01:22:42.890Z,49.10
2018-08-06T01:25:11.871Z,49.10
2018-08-06T01:27:40.384Z,49.00
2018-08-06T01:30:11.350Z,48.80
2018-08-06T01:32:39.713Z,48.80
2018-08-06T01:35:09.062Z,49.40
2018-08-06T01:37:37.401Z,49.60
2018-08-06T01:40:09.500Z,49.60
2018-08-06T01:42:37.912Z,49.70
2018-08-06T01:45:06.800Z,49.80
2018-08-06T01:50:04.531Z,49.80
2018-08-06T01:52:32.864Z,49.60
2018-08-06T01:55:01.261Z,49.70
2018-08-06T01:57:29.581Z,49.90
2018-08-06T01:59:58.010Z,50.70
2018-08-06T02:02:26.430Z,50.70
2018-08-06T02:04:54.781Z,50.40
2018-08-06T02:07:23.107Z,51.00
2018-08-06T02:12:19.947Z,50.80
2018-08-06T02:14:48.304Z,50.90
2018-08-06T02:17:16.625Z,50.80
2018-08-06T02:22:13.205Z,50.20
2018-08-06T02:24:41.586Z,50.50
2018-08-06T02:27:10.037Z,51.00
2018-08-06T02:29:38.330Z,50.90
2018-08-06T02:32:06.812Z,51.10
2018-08-06T02:34:35.214Z,51.20
2018-08-06T02:37:03.677Z,50.80
2018-08-06T02:39:32.026Z,51.10
2018-08-06T02:42:00.483Z,51.10
2018-08-06T02:46:57.142Z,51.80
2018-08-06T02:49:25.560Z,52.10
2018-08-06T02:51:53.907Z,52.30
2018-08-06T02:54:22.204Z,52.70
2018-08-06T02:56:50.584Z,52.90
2018-08-06T02:59:18.921Z,52.60
2018-08-06T03:01:47.252Z,52.30
2018-08-06T03:04:15.593Z,52.40
2018-08-06T03:06:43.956Z,52.60
2018-08-06T03:09:12.729Z,52.60
2018-08-06T03:11:41.315Z,52.50
2018-08-06T03:14:09.780Z,52.20
2018-08-06T03:16:38.582Z,52.50
2018-08-06T03:19:06.967Z,52.90
2018-08-06T03:21:35.371Z,53.40
2018-08-06T03:24:03.818Z,53.60
2018-08-06T03:26:32.151Z,53.80
2018-08-06T03:29:00.589Z,54.20
2018-08-06T03:31:29.069Z,53.30
2018-08-06T03:33:57.454Z,53.40
2018-08-06T03:38:53.994Z,53.30
2018-08-06T03:41:22.448Z,53.20
2018-08-06T03:43:50.760Z,53.50
2018-08-06T03:46:19.155Z,54.00
2018-08-06T03:48:47.469Z,54.10
2018-08-06T03:51:15.815Z,54.00
2018-08-06T03:53:44.246Z,54.20
2018-08-06T03:58:40.863Z,54.90
2018-08-06T04:01:09.232Z,53.80
2018-08-06T04:03:37.557Z,54.00
2018-08-06T04:08:34.431Z,54.10
2018-08-06T04:11:02.740Z,54.30
2018-08-06T04:13:31.143Z,55.10
2018-08-06T04:15:59.428Z,54.70
2018-08-06T04:18:27.691Z,55.00
2018-08-06T04:20:56.042Z,55.10
2018-08-06T04:23:24.333Z,55.10
2018-08-06T04:25:52.668Z,54.90
2018-08-06T04:28:21.005Z,54.30
2018-08-06T04:30:49.328Z,54.60
2018-08-06T04:33:17.751Z,54.50
2018-08-06T04:35:46.081Z,54.50
2018-08-06T04:38:14.484Z,54.50
2018-08-06T04:40:42.779Z,54.50
2018-08-06T04:43:11.202Z,54.80
2018-08-06T04:45:39.507Z,55.10
2018-08-06T04:48:07.878Z,55.10
2018-08-06T04:50:36.244Z,55.10
2018-08-06T04:53:04.693Z,55.10
2018-08-06T04:58:01.236Z,55.10
2018-08-06T05:02:58.837Z,55.10
2018-08-06T05:05:27.236Z,55.10
2018-08-06T05:07:55.598Z,55.20
2018-08-06T05:10:24.869Z,55.20
2018-08-06T05:12:53.225Z,54.30
2018-08-06T05:15:21.526Z,54.10
2018-08-06T05:17:49.810Z,53.60
2018-08-06T05:20:18.218Z,53.60
2018-08-06T05:22:46.632Z,54.30
2018-08-06T05:25:15.029Z,54.00
2018-08-06T05:27:43.386Z,53.80
2018-08-06T05:30:13.231Z,53.90
2018-08-06T05:32:41.634Z,54.30
2018-08-06T05:35:10.047Z,54.00
2018-08-06T05:37:38.468Z,53.90
2018-08-06T05:40:08.374Z,54.30
2018-08-06T05:42:36.917Z,53.90
2018-08-06T05:45:07.445Z,53.40
2018-08-06T05:47:35.930Z,53.20
2018-08-06T05:50:07.416Z,53.00
2018-08-06T05:52:35.915Z,53.30
2018-08-06T05:55:05.919Z,52.50
2018-08-06T05:57:34.425Z,52.60
2018-08-06T06:00:03.841Z,53.00
2018-08-06T06:02:32.251Z,51.90
2018-08-06T06:05:00.593Z,51.60
2018-08-06T06:07:28.996Z,51.20
2018-08-06T06:09:57.402Z,51.00
2018-08-06T06:12:25.721Z,51.30
2018-08-06T06:14:54.092Z,51.10
2018-08-06T06:17:22.409Z,51.40
2018-08-06T06:19:50.833Z,51.20
2018-08-06T06:22:19.245Z,51.50
2018-08-06T06:24:47.657Z,51.90
2018-08-06T06:29:44.204Z,51.70
2018-08-06T06:32:12.596Z,51.90
2018-08-06T06:34:40.990Z,50.80
2018-08-06T06:37:09.325Z,50.40
2018-08-06T06:39:37.634Z,49.60
2018-08-06T06:42:06.176Z,49.40
2018-08-06T06:44:34.595Z,49.70
2018-08-06T06:47:02.965Z,49.60
2018-08-06T06:49:31.381Z,49.30
2018-08-06T06:51:59.786Z,49.50
2018-08-06T06:54:28.126Z,49.90
2018-08-06T06:56:56.412Z,49.80
2018-08-06T06:59:24.794Z,49.60
2018-08-06T07:01:53.108Z,49.50
2018-08-06T07:04:22.066Z,49.30
2018-08-06T07:06:53.253Z,49.10
2018-08-06T07:09:21.688Z,48.90
2018-08-06T07:11:50.117Z,48.90
2018-08-06T07:14:18.532Z,48.80
2018-08-06T07:16:46.934Z,48.10
2018-08-06T07:19:15.286Z,48.70
2018-08-06T07:21:43.628Z,48.20
2018-08-06T07:24:12.052Z,48.20
2018-08-06T07:26:40.478Z,48.30
2018-08-06T07:29:08.874Z,48.40
2018-08-06T07:31:37.331Z,48.50
2018-08-06T07:34:05.795Z,48.50
2018-08-06T07:36:34.225Z,48.50
2018-08-06T07:39:03.361Z,48.10
2018-08-06T07:41:31.794Z,47.60
2018-08-06T07:44:00.169Z,47.70
2018-08-06T07:46:28.550Z,47.30
2018-08-06T07:48:57.029Z,47.40
2018-08-06T07:51:25.500Z,47.70
2018-08-06T07:53:53.936Z,48.20
2018-08-06T07:56:22.258Z,47.00
2018-08-06T07:58:50.943Z,47.10
2018-08-06T08:01:19.321Z,47.00
2018-08-06T08:03:47.778Z,46.70
2018-08-06T08:06:16.190Z,46.40
2018-08-06T08:08:44.505Z,46.40
2018-08-06T08:11:12.923Z,46.10
2018-08-06T08:13:41.261Z,46.10
2018-08-06T08:16:09.689Z,46.20
2018-08-06T08:18:38.196Z,45.90
2018-08-06T08:21:06.682Z,46.00
2018-08-06T08:23:35.053Z,46.00
2018-08-06T08:26:03.399Z,45.60
2018-08-06T08:28:31.795Z,45.70
2018-08-06T08:31:00.134Z,46.20
2018-08-06T08:33:28.482Z,45.40
2018-08-06T08:35:56.970Z,45.50
2018-08-06T08:43:21.814Z,44.60
2018-08-06T08:45:50.243Z,44.60
2018-08-06T08:48:18.540Z,44.50
2018-08-06T08:50:47.067Z,44.40
2018-08-06T08:53:15.426Z,44.90
2018-08-06T08:55:43.848Z,45.10
2018-08-06T08:58:12.195Z,45.10
2018-08-06T09:00:40.640Z,44.80
2018-08-06T09:03:09.033Z,45.10
2018-08-06T09:05:37.637Z,45.30
2018-08-06T09:08:06.110Z,45.30
2018-08-06T09:10:34.492Z,44.50
2018-08-06T09:13:02.893Z,44.60
2018-08-06T09:15:31.373Z,44.10
2018-08-06T09:17:59.751Z,44.10
2018-08-06T09:20:28.173Z,43.80
2018-08-06T09:22:56.545Z,43.80
2018-08-06T09:25:24.929Z,44.40
2018-08-06T09:27:53.286Z,43.90
2018-08-06T09:30:22.920Z,43.90
2018-08-06T09:32:52.754Z,44.00
2018-08-06T09:35:21.353Z,43.80
2018-08-06T09:37:50.001Z,44.10
2018-08-06T09:42:48.514Z,43.50
2018-08-06T09:45:18.929Z,43.20
2018-08-06T09:47:48.748Z,42.60
2018-08-06T09:50:17.803Z,42.00
2018-08-06T09:52:47.332Z,42.60
2018-08-06T09:55:21.477Z,43.50
2018-08-06T09:57:50.545Z,42.80
2018-08-06T10:00:25.834Z,42.40
2018-08-06T10:02:55.421Z,41.80
2018-08-06T10:05:24.650Z,41.70
2018-08-06T10:07:53.227Z,41.80
2018-08-06T10:10:21.665Z,41.80
2018-08-06T10:12:50.217Z,41.30
2018-08-06T10:15:19.117Z,41.40
2018-08-06T10:17:48.986Z,40.40
2018-08-06T10:20:19.542Z,40.20
2018-08-06T10:22:47.914Z,39.90
2018-08-06T10:25:16.497Z,39.80
2018-08-06T10:27:45.610Z,39.40
2018-08-06T10:30:15.287Z,38.90
2018-08-06T10:32:44.037Z,38.80
2018-08-06T10:35:14.609Z,39.10
2018-08-06T10:37:43.080Z,39.00
2018-08-06T10:40:21.551Z,38.00
2018-08-06T10:42:49.936Z,38.10
2018-08-06T10:45:19.598Z,37.60
2018-08-06T10:47:48.440Z,36.70
2018-08-06T10:50:16.881Z,37.00
2018-08-06T10:52:45.293Z,37.10
2018-08-06T10:55:13.758Z,36.60
2018-08-06T10:57:43.493Z,34.20
2018-08-06T11:00:16.652Z,32.80
2018-08-06T11:02:45.192Z,34.40
2018-08-06T11:05:14.517Z,34.50
2018-08-06T11:10:13.969Z,34.10
2018-08-06T11:12:42.354Z,33.40
2018-08-06T11:15:13.874Z,32.90
2018-08-06T11:17:42.422Z,33.20
2018-08-06T11:20:12.800Z,34.00
2018-08-06T11:22:41.477Z,34.20
2018-08-06T11:25:12.013Z,34.10
2018-08-06T11:27:40.450Z,33.50
2018-08-06T11:32:40.245Z,33.00
2018-08-06T11:35:09.741Z,32.00
2018-08-06T11:37:38.386Z,33.00
2018-08-06T11:40:08.641Z,33.00
2018-08-06T11:42:37.793Z,33.10
2018-08-06T11:45:07.622Z,32.60
2018-08-06T11:47:35.997Z,31.70
2018-08-06T11:50:05.626Z,31.60
2018-08-06T11:52:33.944Z,32.10
2018-08-06T11:55:02.445Z,33.20
2018-08-06T11:57:30.854Z,32.60
2018-08-06T11:59:59.292Z,31.70
2018-08-06T12:02:27.795Z,31.80
2018-08-06T12:04:56.334Z,30.90
2018-08-06T12:09:53.035Z,30.60
2018-08-06T12:12:21.394Z,30.70
2018-08-06T12:14:49.788Z,30.30
2018-08-06T12:17:18.191Z,31.00
2018-08-06T12:19:46.527Z,30.30
2018-08-06T12:22:14.915Z,31.20
2018-08-06T12:24:43.277Z,31.40
2018-08-06T12:27:11.594Z,30.90
2018-08-06T12:29:39.917Z,30.90
2018-08-06T12:32:08.386Z,30.90
2018-08-06T12:34:36.798Z,31.10
2018-08-06T12:37:05.919Z,30.70
2018-08-06T12:39:34.326Z,30.80
2018-08-06T12:42:02.664Z,30.90
2018-08-06T12:44:31.045Z,30.90
2018-08-06T12:46:59.434Z,31.00
2018-08-06T12:49:34.642Z,30.80
2018-08-06T12:52:03.098Z,31.20
2018-08-06T12:54:31.493Z,30.60
2018-08-06T12:56:59.823Z,30.40
2018-08-06T12:59:28.178Z,30.20
2018-08-06T13:01:56.604Z,30.60
2018-08-06T13:04:24.994Z,30.00
2018-08-06T13:06:53.345Z,29.90
2018-08-06T13:09:23.709Z,30.00
2018-08-06T13:11:52.114Z,30.20
2018-08-06T13:14:20.447Z,30.00
2018-08-06T13:16:48.827Z,30.00
2018-08-06T13:19:17.198Z,29.60
2018-08-06T13:21:45.604Z,29.30
2018-08-06T13:24:13.973Z,29.30
2018-08-06T13:26:42.417Z,29.90
2018-08-06T13:31:38.998Z,29.60
2018-08-06T13:34:07.522Z,29.30
2018-08-06T13:36:36.910Z,30.00
2018-08-06T13:39:08.544Z,29.50
2018-08-06T13:41:36.871Z,29.80
2018-08-06T13:44:05.321Z,29.50
2018-08-06T13:46:33.660Z,29.20
2018-08-06T13:51:30.249Z,29.40
2018-08-06T13:53:58.711Z,28.30
2018-08-06T13:56:27.025Z,28.50
2018-08-06T13:58:55.386Z,28.00
2018-08-06T14:01:23.789Z,28.40
2018-08-06T14:03:52.488Z,28.50
2018-08-06T14:06:20.928Z,28.40
2018-08-06T14:08:49.340Z,28.30
2018-08-06T14:11:17.740Z,28.50
2018-08-06T14:13:46.043Z,28.30
2018-08-06T14:16:14.378Z,27.90
2018-08-06T14:18:42.682Z,27.70
2018-08-06T14:21:11.081Z,28.10
2018-08-06T14:23:39.479Z,28.30
2018-08-06T14:26:08.000Z,27.70
2018-08-06T14:28:36.436Z,27.50
2018-08-06T14:31:04.773Z,27.40
2018-08-06T14:33:33.176Z,27.20
2018-08-06T14:36:01.557Z,27.00
2018-08-06T14:38:29.927Z,27.00
2018-08-06T14:40:58.365Z,27.00
2018-08-06T14:43:26.652Z,27.60
2018-08-06T14:45:55.100Z,27.20
2018-08-06T14:48:23.525Z,26.80
2018-08-06T14:50:51.914Z,26.20
2018-08-06T14:53:20.291Z,26.60
2018-08-06T14:55:48.663Z,27.00
2018-08-06T14:58:17.344Z,26.10
2018-08-06T15:00:45.705Z,26.50
2018-08-06T15:03:14.155Z,26.40
2018-08-06T15:08:10.779Z,25.60
2018-08-06T15:10:39.176Z,24.70
2018-08-06T15:13:07.550Z,24.90
2018-08-06T15:15:35.953Z,25.10
2018-08-06T15:18:04.730Z,24.90
2018-08-06T15:20:33.162Z,25.50
2018-08-06T15:23:01.670Z,25.60
2018-08-06T15:25:30.163Z,25.70
2018-08-06T15:27:58.705Z,25.50
2018-08-06T15:30:27.049Z,25.80
2018-08-06T15:32:55.422Z,25.70
2018-08-06T15:35:23.874Z,25.80
2018-08-06T15:37:52.373Z,25.70
2018-08-06T15:40:21.149Z,25.70
2018-08-06T15:42:49.583Z,25.80
2018-08-06T15:45:17.974Z,26.10
2018-08-06T15:47:46.460Z,26.10
2018-08-06T15:50:17.672Z,26.10
2018-08-06T15:52:46.213Z,26.10
2018-08-06T15:55:14.756Z,25.60
2018-08-06T15:57:43.264Z,26.20
2018-08-06T16:00:15.596Z,26.60
2018-08-06T16:02:44.923Z,26.00
2018-08-06T16:05:14.113Z,25.40
2018-08-06T16:07:42.717Z,25.10
2018-08-06T16:10:12.110Z,25.30
2018-08-06T16:12:40.894Z,25.50
2018-08-06T16:15:11.144Z,25.80
2018-08-06T16:17:40.419Z,26.10
2018-08-06T16:22:40.331Z,24.90
2018-08-06T16:25:09.614Z,24.10
2018-08-06T16:27:38.133Z,24.00
2018-08-06T16:30:17.918Z,24.40
2018-08-06T16:32:46.945Z,24.70
2018-08-06T16:35:17.005Z,26.10
2018-08-06T16:37:46.167Z,26.30
2018-08-06T16:40:15.033Z,25.80
2018-08-06T16:42:43.606Z,26.10
2018-08-06T16:45:12.153Z,26.10
2018-08-06T16:47:40.709Z,26.00
2018-08-06T16:50:12.082Z,26.40
2018-08-06T16:52:40.535Z,26.00
2018-08-06T16:55:09.833Z,26.00
2018-08-06T16:57:38.391Z,26.00
2018-08-06T17:00:14.845Z,26.00
2018-08-06T17:02:43.368Z,25.90
2018-08-06T17:05:12.668Z,26.70
2018-08-06T17:07:42.131Z,26.40
2018-08-06T17:10:15.696Z,26.70
2018-08-06T17:12:45.168Z,26.80
2018-08-06T17:15:14.886Z,26.40
2018-08-06T17:17:43.647Z,26.50
2018-08-06T17:20:15.781Z,26.60
2018-08-06T17:22:45.469Z,26.60
2018-08-06T17:25:14.209Z,27.40
2018-08-06T17:27:42.853Z,27.60
2018-08-06T17:30:12.544Z,27.50
2018-08-06T17:32:40.998Z,27.10
2018-08-06T17:35:11.298Z,27.10
2018-08-06T17:37:39.832Z,26.90
2018-08-06T17:40:11.496Z,27.30
2018-08-06T17:42:40.035Z,27.10
2018-08-06T17:45:12.433Z,27.30
2018-08-06T17:47:40.910Z,27.40
2018-08-06T17:50:12.097Z,27.50
2018-08-06T17:52:40.510Z,27.60
2018-08-06T17:55:08.924Z,28.00
2018-08-06T17:57:37.427Z,28.00
2018-08-06T18:00:07.378Z,27.90
2018-08-06T18:02:36.178Z,27.90
2018-08-06T18:05:05.825Z,28.20
2018-08-06T18:07:34.219Z,28.30
2018-08-06T18:10:02.836Z,28.40
2018-08-06T18:12:31.312Z,28.50
2018-08-06T18:14:59.774Z,28.40
2018-08-06T18:17:28.166Z,28.50
2018-08-06T18:19:56.516Z,28.50
2018-08-06T18:22:24.896Z,28.60
2018-08-06T18:24:53.373Z,28.60
2018-08-06T18:27:21.954Z,28.60
2018-08-06T18:29:50.366Z,28.70
2018-08-06T18:34:47.016Z,29.30
2018-08-06T18:37:15.441Z,28.80
2018-08-06T18:39:43.878Z,29.10
2018-08-06T18:42:12.298Z,29.10
2018-08-06T18:44:40.665Z,29.10
2018-08-06T18:47:09.252Z,29.10
2018-08-06T18:49:37.868Z,29.30
2018-08-06T18:54:34.752Z,29.40
2018-08-06T18:57:03.208Z,29.60
2018-08-06T18:59:31.704Z,29.90
2018-08-06T19:04:28.544Z,30.50
2018-08-06T19:06:57.019Z,30.50
2018-08-06T19:09:25.489Z,31.40
2018-08-06T19:11:58.492Z,32.50
2018-08-06T19:14:27.015Z,33.30
2018-08-06T19:16:55.438Z,33.30
2018-08-06T19:19:25.490Z,33.30
2018-08-06T19:21:54.803Z,33.30
2018-08-06T19:24:28.765Z,33.30
2018-08-06T19:26:57.290Z,37.80
2018-08-06T19:29:25.757Z,48.60
2018-08-06T19:31:54.739Z,52.30
2018-08-06T19:36:57.170Z,55.20
2018-08-06T19:39:25.678Z,58.30
2018-08-06T19:41:54.209Z,58.20
2018-08-06T19:44:22.808Z,58.10
2018-08-06T19:46:51.466Z,57.80
2018-08-06T19:49:25.486Z,58.80
2018-08-06T19:51:54.055Z,57.60
2018-08-06T19:54:22.587Z,57.40
2018-08-06T19:56:51.098Z,58.60
2018-08-06T19:59:19.736Z,59.10
2018-08-06T20:01:48.238Z,57.50
2018-08-06T20:04:16.673Z,56.90
2018-08-06T20:06:45.255Z,56.60
2018-08-06T20:09:14.350Z,57.60
2018-08-06T20:11:42.940Z,61.20
2018-08-06T20:14:11.541Z,62.50
2018-08-06T20:16:39.958Z,63.70
2018-08-06T20:19:09.164Z,62.90
2018-08-06T20:24:08.318Z,65.00
2018-08-06T20:26:36.717Z,62.00
2018-08-06T20:29:05.268Z,58.80
2018-08-06T20:31:33.763Z,57.50
2018-08-06T20:34:02.633Z,56.10
2018-08-06T20:36:31.054Z,54.20
2018-08-06T20:38:59.530Z,53.70
2018-08-06T20:41:28.027Z,54.10
2018-08-06T20:43:56.394Z,52.40
2018-08-06T20:46:24.883Z,51.00
2018-08-06T20:48:53.330Z,52.10
2018-08-06T20:51:21.776Z,51.80
2018-08-06T20:53:50.213Z,51.60
2018-08-06T20:56:18.597Z,50.30
2018-08-06T20:58:47.020Z,50.70
2018-08-06T21:01:15.529Z,51.20
2018-08-06T21:03:43.964Z,53.10
2018-08-06T21:06:12.354Z,52.00
2018-08-06T21:08:40.760Z,52.20
2018-08-06T21:11:09.261Z,51.60
2018-08-06T21:13:37.686Z,50.30
2018-08-06T21:16:06.316Z,50.10
2018-08-06T21:18:34.835Z,49.00
2018-08-06T21:23:31.730Z,50.70
2018-08-06T21:26:00.153Z,50.00
2018-08-06T21:28:28.614Z,50.00
2018-08-06T21:30:56.997Z,50.10
2018-08-06T21:33:25.444Z,50.00
2018-08-06T21:35:53.781Z,50.00
2018-08-06T21:38:22.229Z,50.00
2018-08-06T21:40:50.605Z,49.90
2018-08-06T21:43:19.022Z,50.00
2018-08-06T21:45:47.609Z,50.70
2018-08-06T21:48:15.951Z,50.50
2018-08-06T21:50:44.500Z,50.00
2018-08-06T21:53:12.930Z,50.00
2018-08-06T21:55:41.366Z,49.90
2018-08-06T21:58:09.906Z,50.40
2018-08-06T22:00:39.567Z,50.50
2018-08-06T22:03:15.130Z,50.30
2018-08-06T22:05:44.555Z,50.00
2018-08-06T22:08:13.097Z,50.00
2018-08-06T22:10:41.950Z,50.10
2018-08-06T22:13:10.750Z,50.10
2018-08-06T22:15:39.187Z,50.60
2018-08-06T22:18:09.811Z,51.20
2018-08-06T22:25:34.971Z,53.20
2018-08-06T22:28:03.593Z,53.40
2018-08-06T22:30:32.088Z,53.70
2018-08-06T22:33:00.401Z,53.80
2018-08-06T22:35:28.838Z,54.30
2018-08-06T22:37:57.199Z,54.90
2018-08-06T22:40:25.620Z,55.20
2018-08-06T22:45:22.355Z,54.60
2018-08-06T22:47:50.744Z,54.80
2018-08-06T22:52:47.413Z,54.40
2018-08-06T22:55:15.881Z,55.00
2018-08-06T23:02:43.633Z,55.80
2018-08-06T23:05:14.125Z,55.70
2018-08-06T23:07:42.603Z,56.00
2018-08-06T23:10:15.028Z,56.30
2018-08-06T23:12:43.513Z,56.30
2018-08-06T23:15:14.751Z,56.50
2018-08-06T23:17:43.789Z,56.40
2018-08-06T23:20:12.185Z,56.50
2018-08-06T23:22:40.688Z,56.80
2018-08-06T23:25:09.171Z,56.80
2018-08-06T23:27:38.179Z,57.20
2018-08-06T23:30:11.230Z,57.10
2018-08-06T23:32:39.950Z,57.20
2018-08-06T23:35:09.935Z,57.30
2018-08-06T23:37:39.189Z,57.60
2018-08-06T23:40:08.698Z,57.30
2018-08-06T23:45:07.813Z,57.60
2018-08-06T23:47:36.862Z,57.00
2018-08-06T23:50:08.359Z,57.10
2018-08-06T23:52:36.797Z,57.00
2018-08-06T23:55:06.265Z,56.90
2018-08-06T23:57:34.791Z,57.10
